createdAt,value
2023-02-24T00:00:28.173Z,27.60
2023-02-24T00:02:57.631Z,30.08
2023-02-24T00:05:27.156Z,27.85
2023-02-24T00:07:59.195Z,33.75
2023-02-24T00:10:28.753Z,29.27
2023-02-24T00:12:58.198Z,31.23
2023-02-24T00:15:27.676Z,28.80
2023-02-24T00:17:58.460Z,30.85
2023-02-24T00:20:28.587Z,32.58
2023-02-24T00:23:00.604Z,31.03
2023-02-24T00:25:30.036Z,32.17
2023-02-24T00:28:01.778Z,32.17
2023-02-24T00:30:33.113Z,28.40
2023-02-24T00:33:04.540Z,30.08
2023-02-24T00:35:35.037Z,31.42
2023-02-24T00:38:07.108Z,31.60
2023-02-24T00:40:38.675Z,30.73
2023-02-24T00:43:08.925Z,31.63
2023-02-24T00:45:39.255Z,30.45
2023-02-24T00:48:10.859Z,31.70
2023-02-24T00:50:40.938Z,29.55
2023-02-24T00:53:12.970Z,30.27
2023-02-24T00:55:42.459Z,29.60
2023-02-24T00:58:11.953Z,29.80
2023-02-24T01:00:43.501Z,30.70
2023-02-24T01:03:12.916Z,31.75
2023-02-24T01:05:42.435Z,32.35
2023-02-24T01:08:21.616Z,31.80
2023-02-24T01:11:18.663Z,30.48
2023-02-24T01:13:45.936Z,34.58
2023-02-24T01:16:18.752Z,34.90
2023-02-24T01:18:48.416Z,32.33
2023-02-24T01:21:18.062Z,34.45
2023-02-24T01:23:52.677Z,34.17
2023-02-24T01:26:22.661Z,34.47
2023-02-24T01:28:52.471Z,34.05
2023-02-24T01:31:23.915Z,32.60
2023-02-24T01:33:54.296Z,31.38
2023-02-24T01:36:25.548Z,31.83
2023-02-24T01:38:57.692Z,34.90
2023-02-24T01:41:27.833Z,32.75
2023-02-24T01:43:58.936Z,31.47
2023-02-24T01:49:00.674Z,32.40
2023-02-24T01:51:30.146Z,33.58
2023-02-24T01:54:02.277Z,31.13
2023-02-24T01:56:32.017Z,32.42
2023-02-24T01:59:01.641Z,31.08
2023-02-24T02:01:40.275Z,31.95
2023-02-24T02:04:14.157Z,35.35
2023-02-24T02:06:44.091Z,35.25
2023-02-24T02:09:16.924Z,36.85
2023-02-24T02:11:49.319Z,35.10
2023-02-24T02:14:19.087Z,32.28
2023-02-24T02:16:58.244Z,37.85
2023-02-24T02:19:49.104Z,35.17
2023-02-24T02:22:32.028Z,36.53
2023-02-24T02:25:04.532Z,35.03
2023-02-24T02:28:00.725Z,32.58
2023-02-24T02:31:02.148Z,34.45
2023-02-24T02:34:01.788Z,35.45
2023-02-24T02:36:36.027Z,36.40
2023-02-24T02:39:11.979Z,33.13
2023-02-24T02:41:49.058Z,35.33
2023-02-24T02:44:21.743Z,32.83
2023-02-24T02:46:52.067Z,33.38
2023-02-24T02:49:23.791Z,33.30
2023-02-24T02:51:57.774Z,37.47
2023-02-24T02:54:29.909Z,35.22
2023-02-24T02:57:01.883Z,33.97
2023-02-24T02:59:32.059Z,33.05
2023-02-24T03:02:11.674Z,35.23
2023-02-24T03:04:43.523Z,36.78
2023-02-24T03:07:16.833Z,37.40
2023-02-24T03:09:47.833Z,38.47
2023-02-24T03:12:18.672Z,37.53
2023-02-24T03:14:51.190Z,39.33
2023-02-24T03:17:22.346Z,39.97
2023-02-24T03:22:27.585Z,39.40
2023-02-24T03:24:57.628Z,38.10
2023-02-24T03:27:30.715Z,34.13
2023-02-24T03:30:01.452Z,36.45
2023-02-24T03:32:33.876Z,38.10
2023-02-24T03:35:04.584Z,38.05
2023-02-24T03:37:37.008Z,38.67
2023-02-24T03:40:11.628Z,38.22
2023-02-24T03:42:42.241Z,37.58
2023-02-24T03:45:12.663Z,39.08
2023-02-24T03:47:42.455Z,40.85
2023-02-24T03:50:14.404Z,39.55
2023-02-24T03:52:50.577Z,37.75
2023-02-24T03:55:24.256Z,38.65
2023-02-24T03:58:02.530Z,35.15
2023-02-24T04:00:37.133Z,34.80
2023-02-24T04:03:12.833Z,37.60
2023-02-24T04:05:47.686Z,38.05
2023-02-24T04:08:20.316Z,35.47
2023-02-24T04:10:52.779Z,37.40
2023-02-24T04:13:25.500Z,36.92
2023-02-24T04:15:59.002Z,36.35
2023-02-24T04:18:30.997Z,38.45
2023-02-24T04:21:01.319Z,36.88
2023-02-24T04:23:35.085Z,38.00
2023-02-24T04:26:04.544Z,37.35
2023-02-24T04:28:34.005Z,35.20
2023-02-24T04:31:06.241Z,36.90
2023-02-24T04:33:35.966Z,36.35
2023-02-24T04:36:05.570Z,35.97
2023-02-24T04:38:37.935Z,37.03
2023-02-24T04:41:08.739Z,36.92
2023-02-24T04:43:38.541Z,37.35
2023-02-24T04:46:08.142Z,41.70
2023-02-24T04:48:39.113Z,38.95
2023-02-24T04:51:08.606Z,40.13
2023-02-24T04:53:40.780Z,37.03
2023-02-24T04:56:11.160Z,38.67
2023-02-24T04:58:43.879Z,37.83
2023-02-24T05:01:13.563Z,38.08
2023-02-24T05:03:45.188Z,39.35
2023-02-24T05:06:16.709Z,41.70
2023-02-24T05:08:48.745Z,39.35
2023-02-24T05:11:19.637Z,37.72
2023-02-24T05:13:51.390Z,33.90
2023-02-24T05:16:21.033Z,32.97
2023-02-24T05:18:50.574Z,36.47
2023-02-24T05:21:32.717Z,33.95
2023-02-24T05:24:06.918Z,37.38
2023-02-24T05:26:37.348Z,36.92
2023-02-24T05:29:07.585Z,37.93
2023-02-24T05:31:37.518Z,36.22
2023-02-24T05:34:07.946Z,32.70
2023-02-24T05:36:40.226Z,35.17
2023-02-24T05:39:12.734Z,35.97
2023-02-24T05:41:42.904Z,35.67
2023-02-24T05:44:14.285Z,38.70
2023-02-24T05:46:44.872Z,35.15
2023-02-24T05:49:16.208Z,36.10
2023-02-24T05:51:54.799Z,38.65
2023-02-24T05:54:29.572Z,36.78
2023-02-24T05:57:00.598Z,36.75
2023-02-24T05:59:32.868Z,36.67
2023-02-24T06:02:07.117Z,36.22
2023-02-24T06:04:46.783Z,36.38
2023-02-24T06:07:19.411Z,36.47
2023-02-24T06:09:53.837Z,37.42
2023-02-24T06:12:23.867Z,36.78
2023-02-24T06:14:53.325Z,37.97
2023-02-24T06:17:24.417Z,39.95
2023-02-24T06:22:24.823Z,35.78
2023-02-24T06:24:57.341Z,36.88
2023-02-24T06:27:27.166Z,36.47
2023-02-24T06:29:57.706Z,38.05
2023-02-24T06:32:29.008Z,34.50
2023-02-24T06:34:59.416Z,37.72
2023-02-24T06:37:30.101Z,37.90
2023-02-24T06:40:02.129Z,35.67
2023-02-24T06:42:31.654Z,34.65
2023-02-24T06:45:01.081Z,39.35
2023-02-24T06:47:30.526Z,37.50
2023-02-24T06:49:59.992Z,34.85
2023-02-24T06:52:30.933Z,38.75
2023-02-24T06:55:04.749Z,40.97
2023-02-24T06:57:35.527Z,37.20
2023-02-24T07:00:17.022Z,36.95
2023-02-24T07:02:46.486Z,41.47
2023-02-24T07:05:17.093Z,38.08
2023-02-24T07:07:46.701Z,38.47
2023-02-24T07:10:19.299Z,37.83
2023-02-24T07:12:48.729Z,37.42
2023-02-24T07:15:18.449Z,39.45
2023-02-24T07:17:48.882Z,37.90
2023-02-24T07:20:25.384Z,39.03
2023-02-24T07:22:54.933Z,40.28
2023-02-24T07:25:34.261Z,39.40
2023-02-24T07:28:03.841Z,40.05
2023-02-24T07:30:33.593Z,40.03
2023-02-24T07:33:03.851Z,38.38
2023-02-24T07:35:33.542Z,37.87
2023-02-24T07:38:05.514Z,37.67
2023-02-24T07:40:39.026Z,39.42
2023-02-24T07:43:08.469Z,41.95
2023-02-24T07:45:38.102Z,39.78
2023-02-24T07:48:07.904Z,39.08
2023-02-24T07:50:38.073Z,39.53
2023-02-24T07:53:07.780Z,37.80
2023-02-24T07:55:40.280Z,39.72
2023-02-24T07:58:10.682Z,36.53
2023-02-24T08:00:59.557Z,39.78
2023-02-24T08:03:33.279Z,37.88
2023-02-24T08:06:15.287Z,38.50
2023-02-24T08:08:57.972Z,38.47
2023-02-24T08:11:35.769Z,37.45
2023-02-24T08:14:10.902Z,37.10
2023-02-24T08:16:42.406Z,38.47
2023-02-24T08:19:14.102Z,41.67
2023-02-24T08:21:47.461Z,38.60
2023-02-24T08:24:19.173Z,37.63
2023-02-24T08:27:04.260Z,38.65
2023-02-24T08:29:40.232Z,38.30
2023-02-24T08:32:10.004Z,38.83
2023-02-24T08:34:39.497Z,35.45
2023-02-24T08:37:08.993Z,36.42
2023-02-24T08:39:38.461Z,34.72
2023-02-24T08:42:14.287Z,37.03
2023-02-24T08:44:45.971Z,35.80
2023-02-24T08:47:21.138Z,38.38
2023-02-24T08:49:51.271Z,35.25
2023-02-24T08:52:20.725Z,35.58
2023-02-24T08:54:50.748Z,34.70
2023-02-24T08:57:26.019Z,34.03
2023-02-24T08:59:57.852Z,35.78
2023-02-24T09:02:29.441Z,32.13
2023-02-24T09:04:59.916Z,32.63
2023-02-24T09:07:30.294Z,32.00
2023-02-24T09:10:00.418Z,34.47
2023-02-24T09:12:32.672Z,34.42
2023-02-24T09:15:04.694Z,34.35
2023-02-24T09:17:50.275Z,34.67
2023-02-24T09:20:33.461Z,33.78
2023-02-24T09:23:03.802Z,33.92
2023-02-24T09:25:49.648Z,32.28
2023-02-24T09:28:24.861Z,32.67
2023-02-24T09:30:55.978Z,31.90
2023-02-24T09:33:27.019Z,30.30
2023-02-24T09:36:03.297Z,30.23
2023-02-24T09:38:45.583Z,33.92
2023-02-24T09:41:34.575Z,30.02
2023-02-24T09:44:08.289Z,30.33
2023-02-24T09:46:42.406Z,29.88
2023-02-24T09:49:17.366Z,30.70
2023-02-24T09:51:53.446Z,28.52
2023-02-24T09:54:24.533Z,29.30
2023-02-24T09:59:51.148Z,28.42
2023-02-24T10:02:27.476Z,28.95
2023-02-24T10:05:07.313Z,33.72
2023-02-24T10:07:40.393Z,29.50
2023-02-24T10:10:28.275Z,28.40
2023-02-24T10:13:01.346Z,27.15
2023-02-24T10:15:46.885Z,25.58
2023-02-24T10:18:29.861Z,25.90
2023-02-24T10:21:02.934Z,28.10
2023-02-24T10:23:35.556Z,32.60
2023-02-24T10:26:07.470Z,26.58
2023-02-24T10:28:40.093Z,26.35
2023-02-24T10:31:25.650Z,24.85
2023-02-24T10:33:58.812Z,25.38
2023-02-24T10:36:35.635Z,24.02
2023-02-24T10:39:08.532Z,20.45
2023-02-24T10:41:45.867Z,20.42
2023-02-24T10:44:16.512Z,20.40
2023-02-24T10:46:50.245Z,19.63
2023-02-24T10:49:19.902Z,19.38
2023-02-24T10:51:51.428Z,21.20
2023-02-24T10:55:05.083Z,21.65
2023-02-24T10:57:58.189Z,21.48
2023-02-24T11:00:51.879Z,18.00
2023-02-24T11:03:36.177Z,15.00
2023-02-24T11:06:30.491Z,16.23
2023-02-24T11:09:19.108Z,16.92
2023-02-24T11:12:01.580Z,15.10
2023-02-24T11:14:43.527Z,14.90
2023-02-24T11:17:27.155Z,15.40
2023-02-24T11:20:10.848Z,12.95
2023-02-24T11:22:41.677Z,14.93
2023-02-24T11:25:16.110Z,16.63
2023-02-24T11:27:45.572Z,16.25
2023-02-24T11:30:19.286Z,16.65
2023-02-24T11:32:58.724Z,16.13
2023-02-24T11:35:33.751Z,15.38
2023-02-24T11:38:06.072Z,15.75
2023-02-24T11:40:36.653Z,16.38
2023-02-24T11:43:08.444Z,13.35
2023-02-24T11:45:39.463Z,12.60
2023-02-24T11:48:15.160Z,12.23
2023-02-24T11:50:48.621Z,12.63
2023-02-24T11:53:23.019Z,12.90
2023-02-24T11:55:54.354Z,12.50
2023-02-24T11:58:26.875Z,12.65
2023-02-24T12:00:58.445Z,13.68
2023-02-24T12:03:32.165Z,12.13
2023-02-24T12:06:08.347Z,11.93
2023-02-24T12:08:38.712Z,12.95
2023-02-24T12:11:09.784Z,13.60
2023-02-24T12:16:12.984Z,12.07
2023-02-24T12:18:43.693Z,11.20
2023-02-24T12:21:17.805Z,12.52
2023-02-24T12:23:48.434Z,13.48
2023-02-24T12:26:20.608Z,13.00
2023-02-24T12:29:07.423Z,13.05
2023-02-24T12:31:41.714Z,11.85
2023-02-24T12:34:15.749Z,11.20
2023-02-24T12:37:05.603Z,10.93
2023-02-24T12:39:39.085Z,11.80
2023-02-24T12:42:13.265Z,10.85
2023-02-24T12:44:47.274Z,11.93
2023-02-24T12:47:17.598Z,12.57
2023-02-24T12:50:08.822Z,12.35
2023-02-24T12:52:46.559Z,13.95
2023-02-24T12:55:21.640Z,12.18
2023-02-24T12:57:54.000Z,11.82
2023-02-24T13:00:25.283Z,12.82
2023-02-24T13:02:58.033Z,11.90
2023-02-24T13:05:31.093Z,12.32
2023-02-24T13:08:14.029Z,13.38
2023-02-24T13:10:45.469Z,11.27
2023-02-24T13:13:17.066Z,10.65
2023-02-24T13:15:53.212Z,11.13
2023-02-24T13:18:29.995Z,14.55
2023-02-24T13:21:07.100Z,11.27
2023-02-24T13:23:39.357Z,12.57
2023-02-24T13:26:08.790Z,12.02
2023-02-24T13:28:39.166Z,11.68
2023-02-24T13:31:09.918Z,11.75
2023-02-24T13:33:40.674Z,12.57
2023-02-24T13:36:21.608Z,12.05
2023-02-24T13:38:54.417Z,11.15
2023-02-24T13:41:41.250Z,11.45
2023-02-24T13:44:26.258Z,11.40
2023-02-24T13:47:29.109Z,12.43
2023-02-24T13:50:05.618Z,13.30
2023-02-24T13:52:42.966Z,11.60
2023-02-24T13:55:23.676Z,12.68
2023-02-24T13:58:05.489Z,13.93
2023-02-24T14:00:42.025Z,11.85
2023-02-24T14:03:13.038Z,11.15
2023-02-24T14:05:46.356Z,11.50
2023-02-24T14:08:20.860Z,12.05
2023-02-24T14:10:55.331Z,11.23
2023-02-24T14:13:28.056Z,13.98
2023-02-24T14:15:57.916Z,10.63
2023-02-24T14:18:28.392Z,9.82
2023-02-24T14:20:58.864Z,12.45
2023-02-24T14:23:29.153Z,11.35
2023-02-24T14:26:03.138Z,12.13
2023-02-24T14:28:33.914Z,11.60
2023-02-24T14:31:05.500Z,10.65
2023-02-24T14:33:37.216Z,11.00
2023-02-24T14:36:07.259Z,8.65
2023-02-24T14:38:37.943Z,9.18
2023-02-24T14:41:17.762Z,8.85
2023-02-24T14:43:47.214Z,8.32
2023-02-24T14:46:16.734Z,9.02
2023-02-24T14:48:46.326Z,9.40
2023-02-24T14:51:18.555Z,8.80
2023-02-24T14:53:50.899Z,8.55
2023-02-24T14:56:23.433Z,9.05
2023-02-24T14:58:54.680Z,10.07
2023-02-24T15:01:25.014Z,9.52
2023-02-24T15:03:55.292Z,9.60
2023-02-24T15:06:26.326Z,8.27
2023-02-24T15:08:58.940Z,8.65
2023-02-24T15:11:32.295Z,8.43
2023-02-24T15:14:03.270Z,7.60
2023-02-24T15:16:36.134Z,7.55
2023-02-24T15:19:05.673Z,7.65
2023-02-24T15:21:35.837Z,9.30
2023-02-24T15:24:06.569Z,8.17
2023-02-24T15:26:38.811Z,9.23
2023-02-24T15:29:15.768Z,9.43
2023-02-24T15:31:49.604Z,9.00
2023-02-24T15:34:20.501Z,10.02
2023-02-24T15:36:51.256Z,8.13
2023-02-24T15:39:23.462Z,8.75
2023-02-24T15:41:55.804Z,8.98
2023-02-24T15:44:30.065Z,8.85
2023-02-24T15:46:59.939Z,7.70
2023-02-24T15:49:29.854Z,10.00
2023-02-24T15:52:04.101Z,8.88
2023-02-24T15:54:35.154Z,8.48
2023-02-24T15:59:37.271Z,8.05
2023-02-24T16:02:12.071Z,8.88
2023-02-24T16:04:41.762Z,8.52
2023-02-24T16:07:12.752Z,8.90
2023-02-24T16:09:43.105Z,9.95
2023-02-24T16:12:16.550Z,8.07
2023-02-24T16:14:46.061Z,8.52
2023-02-24T16:17:21.681Z,8.82
2023-02-24T16:19:51.937Z,8.70
2023-02-24T16:22:21.410Z,8.55
2023-02-24T16:24:50.995Z,8.15
2023-02-24T16:27:26.036Z,11.82
2023-02-24T16:29:56.253Z,7.57
2023-02-24T16:32:26.139Z,6.87
2023-02-24T16:34:56.391Z,7.80
2023-02-24T16:37:28.445Z,9.63
2023-02-24T16:39:57.934Z,7.25
2023-02-24T16:42:30.078Z,7.22
2023-02-24T16:44:59.690Z,7.80
2023-02-24T16:47:29.268Z,8.95
2023-02-24T16:49:58.958Z,6.75
2023-02-24T16:52:28.690Z,8.00
2023-02-24T16:54:59.325Z,7.15
2023-02-24T16:57:31.365Z,9.15
2023-02-24T17:00:00.831Z,8.07
2023-02-24T17:02:30.285Z,9.73
2023-02-24T17:04:59.764Z,8.80
2023-02-24T17:07:29.274Z,7.60
2023-02-24T17:09:58.807Z,7.57
2023-02-24T17:12:31.160Z,7.88
2023-02-24T17:15:00.693Z,7.47
2023-02-24T17:17:30.434Z,9.32
2023-02-24T17:19:59.924Z,10.10
2023-02-24T17:22:29.385Z,8.43
2023-02-24T17:24:58.853Z,8.13
2023-02-24T17:27:30.907Z,9.00
2023-02-24T17:30:00.443Z,8.80
2023-02-24T17:32:29.983Z,9.77
2023-02-24T17:34:59.673Z,9.68
2023-02-24T17:37:29.346Z,9.75
2023-02-24T17:39:58.874Z,10.75
2023-02-24T17:42:30.932Z,9.02
2023-02-24T17:45:00.505Z,9.98
2023-02-24T17:47:30.028Z,9.85
2023-02-24T17:49:59.576Z,9.52
2023-02-24T17:52:29.475Z,11.15
2023-02-24T17:54:59.386Z,10.13
2023-02-24T17:57:32.343Z,10.25
2023-02-24T18:00:01.918Z,9.48
2023-02-24T18:02:31.648Z,9.18
2023-02-24T18:05:02.173Z,10.10
2023-02-24T18:07:31.664Z,10.95
2023-02-24T18:10:01.370Z,8.52
2023-02-24T18:12:33.513Z,9.27
2023-02-24T18:15:08.700Z,8.45
2023-02-24T18:17:38.658Z,8.35
2023-02-24T18:20:09.430Z,8.10
2023-02-24T18:22:39.041Z,9.40
2023-02-24T18:25:09.541Z,8.82
2023-02-24T18:27:41.790Z,11.95
2023-02-24T18:30:13.279Z,11.10
2023-02-24T18:32:44.878Z,9.30
2023-02-24T18:35:15.950Z,10.40
2023-02-24T18:37:45.578Z,8.55
2023-02-24T18:40:15.773Z,8.38
2023-02-24T18:42:47.812Z,8.47
2023-02-24T18:45:17.554Z,8.45
2023-02-24T18:47:47.221Z,10.45
2023-02-24T18:50:17.252Z,9.32
2023-02-24T18:52:46.735Z,9.18
2023-02-24T18:55:16.233Z,9.20
2023-02-24T18:57:48.594Z,8.18
2023-02-24T19:00:19.360Z,33.00
2023-02-24T19:02:49.501Z,11.63
2023-02-24T19:05:20.512Z,9.27
2023-02-24T19:07:50.006Z,11.05
2023-02-24T19:10:20.436Z,17.90
2023-02-24T19:12:52.441Z,14.02
2023-02-24T19:15:22.486Z,9.93
2023-02-24T19:17:51.952Z,10.23
2023-02-24T19:20:21.909Z,9.70
2023-02-24T19:22:51.754Z,10.73
2023-02-24T19:25:21.434Z,9.98
2023-02-24T19:27:55.485Z,12.48
2023-02-24T19:30:24.920Z,12.77
2023-02-24T19:32:54.423Z,21.65
2023-02-24T19:35:24.282Z,12.30
2023-02-24T19:37:53.745Z,12.95
2023-02-24T19:40:23.583Z,11.18
2023-02-24T19:42:55.636Z,11.57
2023-02-24T19:45:25.318Z,11.20
2023-02-24T19:47:54.971Z,12.82
2023-02-24T19:50:24.453Z,11.70
2023-02-24T19:52:53.891Z,11.32
2023-02-24T19:55:23.345Z,11.85
2023-02-24T19:57:58.293Z,10.90
2023-02-24T20:00:28.298Z,11.68
2023-02-24T20:02:57.773Z,12.65
2023-02-24T20:05:27.499Z,11.63
2023-02-24T20:07:57.058Z,12.65
2023-02-24T20:10:26.505Z,10.55
2023-02-24T20:12:58.557Z,12.18
2023-02-24T20:15:28.013Z,11.27
2023-02-24T20:17:59.222Z,12.18
2023-02-24T20:22:57.907Z,12.80
2023-02-24T20:25:27.356Z,12.77
2023-02-24T20:27:59.392Z,11.75
2023-02-24T20:30:28.822Z,12.80
2023-02-24T20:32:59.635Z,12.52
2023-02-24T20:35:29.176Z,15.45
2023-02-24T20:37:58.656Z,13.13
2023-02-24T20:40:28.140Z,13.00
2023-02-24T20:43:00.259Z,12.82
2023-02-24T20:45:30.758Z,12.80
2023-02-24T20:48:00.517Z,12.60
2023-02-24T20:50:30.027Z,11.20
2023-02-24T20:52:59.463Z,12.77
2023-02-24T20:55:28.885Z,12.10
2023-02-24T20:58:00.943Z,12.15
2023-02-24T21:00:30.404Z,11.57
2023-02-24T21:03:00.096Z,11.60
2023-02-24T21:05:29.657Z,11.43
2023-02-24T21:07:59.096Z,11.05
2023-02-24T21:10:28.590Z,12.20
2023-02-24T21:13:00.586Z,11.73
2023-02-24T21:15:30.073Z,13.00
2023-02-24T21:17:59.528Z,12.45
2023-02-24T21:20:28.940Z,12.27
2023-02-24T21:22:58.512Z,13.15
2023-02-24T21:25:27.923Z,12.52
2023-02-24T21:27:59.969Z,11.68
2023-02-24T21:30:29.400Z,12.57
2023-02-24T21:32:58.884Z,12.25
2023-02-24T21:35:28.360Z,15.65
2023-02-24T21:37:57.796Z,14.77
2023-02-24T21:40:27.268Z,14.02
2023-02-24T21:42:56.704Z,9.48
2023-02-24T21:45:29.426Z,10.27
2023-02-24T21:47:58.905Z,10.40
2023-02-24T21:50:28.365Z,9.20
2023-02-24T21:52:57.886Z,11.90
2023-02-24T21:55:27.593Z,11.32
2023-02-24T21:57:57.218Z,10.27
2023-02-24T22:00:30.281Z,8.73
2023-02-24T22:02:59.811Z,7.25
2023-02-24T22:05:29.425Z,6.07
2023-02-24T22:07:59.457Z,8.43
2023-02-24T22:10:28.904Z,7.80
2023-02-24T22:12:58.958Z,7.75
2023-02-24T22:15:31.246Z,6.20
2023-02-24T22:18:00.688Z,7.82
2023-02-24T22:20:30.194Z,8.18
2023-02-24T22:22:59.721Z,9.32
2023-02-24T22:25:29.275Z,9.15
2023-02-24T22:27:58.712Z,9.20
2023-02-24T22:30:30.942Z,10.05
2023-02-24T22:33:00.370Z,9.73
2023-02-24T22:35:29.836Z,10.35
2023-02-24T22:37:59.614Z,12.23
2023-02-24T22:40:29.125Z,9.35
2023-02-24T22:42:58.588Z,8.70
2023-02-24T22:45:28.065Z,10.20
2023-02-24T22:48:00.736Z,9.68
2023-02-24T22:50:30.175Z,8.27
2023-02-24T22:52:59.784Z,12.48
2023-02-24T22:55:29.410Z,10.20
2023-02-24T22:57:58.903Z,13.65
2023-02-24T23:00:28.434Z,12.23
2023-02-24T23:03:00.454Z,9.88
2023-02-24T23:05:29.971Z,11.18
2023-02-24T23:08:02.516Z,10.60
2023-02-24T23:10:35.341Z,10.55
2023-02-24T23:13:04.938Z,9.65
2023-02-24T23:15:39.047Z,11.70
2023-02-24T23:18:11.129Z,10.23
2023-02-24T23:20:40.581Z,9.85
2023-02-24T23:23:10.667Z,10.70
2023-02-24T23:25:40.152Z,9.70
2023-02-24T23:28:09.630Z,10.18
2023-02-24T23:30:43.411Z,8.35
2023-02-24T23:33:15.704Z,11.07
2023-02-24T23:35:45.279Z,10.93
2023-02-24T23:38:14.798Z,9.80
2023-02-24T23:40:50.018Z,14.05
2023-02-24T23:43:20.236Z,10.55
2023-02-24T23:45:49.983Z,12.82
2023-02-24T23:48:22.320Z,10.25
2023-02-24T23:50:55.465Z,12.45
2023-02-24T23:53:24.922Z,10.70
2023-02-24T23:55:54.311Z,13.98
2023-02-24T23:58:24.480Z,12.52
